createdAt,value
2023-01-08T00:02:00.992Z,61.20
2023-01-08T00:07:02.794Z,64.30
2023-01-08T00:12:05.769Z,65.60
2023-01-08T00:17:08.487Z,66.50
2023-01-08T00:22:10.222Z,67.40
2023-01-08T00:27:12.040Z,59.20
2023-01-08T00:32:13.835Z,63.30
2023-01-08T00:37:20.074Z,83.20
2023-01-08T00:42:21.870Z,68.10
2023-01-08T00:47:23.657Z,76.00
2023-01-08T00:52:25.815Z,68.70
2023-01-08T00:57:33.194Z,66.10
2023-01-08T01:02:36.680Z,70.50
2023-01-08T01:07:38.389Z,69.30
2023-01-08T01:12:40.434Z,63.90
2023-01-08T01:17:43.448Z,63.90
2023-01-08T01:22:45.329Z,48.00
2023-01-08T01:27:47.164Z,46.10
2023-01-08T01:32:49.029Z,49.60
2023-01-08T01:37:50.789Z,45.20
2023-01-08T01:47:56.060Z,54.80
2023-01-08T01:53:06.823Z,70.70
2023-01-08T01:58:20.695Z,59.30
2023-01-08T02:03:26.632Z,58.50
2023-01-08T02:08:42.235Z,63.00
2023-01-08T02:13:54.840Z,55.30
2023-01-08T02:19:14.106Z,50.20
2023-01-08T02:24:50.197Z,50.60
2023-01-08T02:29:54.993Z,49.40
2023-01-08T02:34:56.656Z,46.30
2023-01-08T02:45:37.226Z,46.40
2023-01-08T02:50:51.445Z,50.40
2023-01-08T02:55:58.792Z,48.80
2023-01-08T03:01:07.053Z,48.80
2023-01-08T03:06:13.102Z,54.40
2023-01-08T03:11:17.888Z,52.10
2023-01-08T03:16:52.689Z,51.20
2023-01-08T03:21:55.730Z,48.40
2023-01-08T03:27:00.935Z,50.00
2023-01-08T03:32:06.750Z,48.40
2023-01-08T03:37:10.983Z,46.20
2023-01-08T03:42:16.743Z,45.20
2023-01-08T03:47:21.786Z,47.60
2023-01-08T03:52:28.928Z,45.80
2023-01-08T03:57:30.690Z,46.50
2023-01-08T04:02:32.599Z,44.00
2023-01-08T04:07:34.582Z,45.90
2023-01-08T04:12:36.402Z,44.60
2023-01-08T04:17:38.469Z,43.70
2023-01-08T04:22:40.155Z,43.90
2023-01-08T04:27:41.922Z,42.40
2023-01-08T04:32:43.657Z,43.10
2023-01-08T04:37:45.396Z,44.90
2023-01-08T04:42:47.168Z,45.50
2023-01-08T04:47:48.854Z,45.30
2023-01-08T04:52:50.697Z,41.50
2023-01-08T04:57:52.421Z,44.30
2023-01-08T05:02:55.413Z,44.40
2023-01-08T05:07:57.332Z,45.20
2023-01-08T05:13:02.125Z,40.80
2023-01-08T05:18:05.973Z,42.40
2023-01-08T05:23:07.692Z,43.80
2023-01-08T05:28:09.547Z,42.20
2023-01-08T05:33:11.203Z,37.60
2023-01-08T05:38:13.213Z,36.90
2023-01-08T05:43:15.045Z,38.80
2023-01-08T05:48:16.828Z,37.70
2023-01-08T05:53:19.041Z,36.80
2023-01-08T05:58:21.136Z,35.40
2023-01-08T06:03:23.323Z,38.10
2023-01-08T06:08:25.118Z,60.90
2023-01-08T06:13:27.754Z,39.00
2023-01-08T06:18:29.982Z,43.30
2023-01-08T06:23:32.741Z,44.90
2023-01-08T06:28:35.562Z,50.20
2023-01-08T06:33:37.254Z,48.30
2023-01-08T06:38:39.069Z,48.20
2023-01-08T06:43:40.838Z,50.00
2023-01-08T06:48:42.668Z,46.00
2023-01-08T06:53:44.365Z,43.10
2023-01-08T06:58:46.176Z,172.60
2023-01-08T07:08:49.628Z,56.00
2023-01-08T07:13:51.497Z,50.60
2023-01-08T07:18:53.227Z,43.40
2023-01-08T07:23:55.147Z,47.90
2023-01-08T07:28:56.784Z,47.50
2023-01-08T07:44:02.060Z,50.40
2023-01-08T07:49:06.157Z,54.30
2023-01-08T07:54:07.841Z,45.90
2023-01-08T08:09:13.458Z,55.40
2023-01-08T08:14:15.199Z,55.60
2023-01-08T08:19:16.907Z,52.30
2023-01-08T08:24:18.626Z,50.90
2023-01-08T08:29:20.692Z,42.00
2023-01-08T08:34:22.725Z,44.20
2023-01-08T08:39:24.513Z,43.20
2023-01-08T08:44:26.245Z,38.40
2023-01-08T08:49:27.913Z,37.70
2023-01-08T08:54:29.588Z,39.80
2023-01-08T08:59:31.306Z,36.00
2023-01-08T09:04:34.298Z,33.60
2023-01-08T09:09:35.999Z,33.70
2023-01-08T09:14:37.890Z,30.60
2023-01-08T09:19:39.741Z,31.20
2023-01-08T09:24:41.580Z,34.80
2023-01-08T09:30:10.283Z,30.30
2023-01-08T09:35:12.057Z,30.00
2023-01-08T09:40:16.432Z,30.80
2023-01-08T09:45:28.781Z,29.80
2023-01-08T09:50:32.946Z,25.50
2023-01-08T09:55:34.633Z,27.00
2023-01-08T10:00:36.287Z,25.90
2023-01-08T10:05:37.930Z,29.80
2023-01-08T10:10:41.578Z,27.70
2023-01-08T10:15:43.354Z,24.50
2023-01-08T10:20:45.196Z,32.60
2023-01-08T10:25:58.530Z,26.60
2023-01-08T10:31:06.659Z,30.20
2023-01-08T10:36:11.787Z,34.00
2023-01-08T10:41:15.021Z,37.60
2023-01-08T10:46:42.223Z,35.30
2023-01-08T10:51:55.676Z,38.90
2023-01-08T10:56:58.440Z,31.40
2023-01-08T11:02:00.915Z,31.90
2023-01-08T11:07:06.878Z,34.40
2023-01-08T11:12:47.569Z,30.00
2023-01-08T11:17:49.303Z,29.00
2023-01-08T11:22:50.990Z,30.90
2023-01-08T11:27:53.906Z,37.10
2023-01-08T11:33:16.837Z,36.40
2023-01-08T11:38:18.581Z,34.10
2023-01-08T11:43:41.914Z,40.50
2023-01-08T11:49:14.892Z,38.10
2023-01-08T11:54:53.897Z,39.00
2023-01-08T12:00:09.004Z,31.10
2023-01-08T12:05:26.191Z,31.70
2023-01-08T12:10:54.516Z,31.70
2023-01-08T12:16:17.600Z,32.20
2023-01-08T12:21:25.720Z,30.90
2023-01-08T12:26:34.413Z,28.90
2023-01-08T12:32:04.959Z,31.10
2023-01-08T12:37:33.351Z,28.20
2023-01-08T12:42:42.679Z,27.70
2023-01-08T12:47:53.652Z,27.70
2023-01-08T12:53:07.931Z,26.20
2023-01-08T12:58:45.676Z,29.60
2023-01-08T13:03:49.121Z,31.00
2023-01-08T13:08:53.834Z,32.90
2023-01-08T13:14:08.879Z,33.80
2023-01-08T13:19:28.956Z,33.70
2023-01-08T13:24:37.227Z,33.00
2023-01-08T13:29:44.493Z,30.80
2023-01-08T13:34:46.347Z,28.80
2023-01-08T13:39:48.123Z,30.30
2023-01-08T13:44:59.019Z,29.80
2023-01-08T13:50:06.066Z,33.80
2023-01-08T13:55:21.191Z,38.20
2023-01-08T14:00:44.250Z,50.80
2023-01-08T14:05:45.915Z,61.50
2023-01-08T14:10:47.719Z,60.20
2023-01-08T14:15:49.682Z,45.40
2023-01-08T14:20:51.779Z,38.40
2023-01-08T14:25:54.352Z,36.80
2023-01-08T14:30:57.425Z,34.30
2023-01-08T14:36:01.264Z,37.70
2023-01-08T14:41:13.008Z,41.00
2023-01-08T14:46:29.709Z,39.50
2023-01-08T14:51:32.238Z,37.10
2023-01-08T14:56:36.163Z,41.40
2023-01-08T15:01:38.786Z,52.30
2023-01-08T15:06:41.828Z,63.20
2023-01-08T15:12:13.083Z,77.80
2023-01-08T15:17:20.233Z,91.30
2023-01-08T15:22:27.969Z,98.10
2023-01-08T15:27:31.763Z,64.50
2023-01-08T15:32:37.412Z,155.70
2023-01-08T15:37:41.151Z,94.30
2023-01-08T15:43:02.740Z,129.10
2023-01-08T15:53:18.419Z,57.40
2023-01-08T15:58:20.079Z,57.00
2023-01-08T16:03:24.183Z,54.90
2023-01-08T16:08:26.016Z,65.60
2023-01-08T16:13:27.790Z,70.10
2023-01-08T16:18:29.623Z,65.00
2023-01-08T16:23:34.821Z,55.20
2023-01-08T16:28:37.312Z,58.70
2023-01-08T16:33:39.374Z,55.60
2023-01-08T16:38:41.133Z,51.60
2023-01-08T16:43:45.278Z,56.10
2023-01-08T16:48:48.468Z,52.80
2023-01-08T16:53:50.349Z,61.10
2023-01-08T16:58:52.221Z,64.30
2023-01-08T17:03:54.433Z,68.70
2023-01-08T17:08:59.180Z,80.80
2023-01-08T17:14:04.920Z,93.70
2023-01-08T17:19:07.100Z,75.40
2023-01-08T17:24:09.156Z,69.90
2023-01-08T17:29:10.841Z,64.20
2023-01-08T17:34:14.100Z,59.90
2023-01-08T17:39:15.735Z,75.60
2023-01-08T17:44:17.650Z,73.90
2023-01-08T17:49:19.437Z,60.80
2023-01-08T17:54:22.562Z,61.80
2023-01-08T17:59:24.404Z,64.40
2023-01-08T18:04:26.271Z,56.40
2023-01-08T18:09:28.022Z,59.60
2023-01-08T18:14:29.916Z,53.90
2023-01-08T18:19:31.820Z,55.20
2023-01-08T18:24:34.889Z,52.60
2023-01-08T18:29:36.592Z,62.60
2023-01-08T18:34:38.980Z,51.20
2023-01-08T18:39:40.623Z,48.00
2023-01-08T18:44:42.534Z,42.20
2023-01-08T18:49:44.250Z,38.00
2023-01-08T18:54:45.980Z,42.90
2023-01-08T18:59:50.525Z,47.90
2023-01-08T19:04:52.737Z,58.60
2023-01-08T19:09:54.556Z,66.80
2023-01-08T19:14:56.329Z,73.20
2023-01-08T19:19:58.103Z,78.40
2023-01-08T19:25:00.151Z,73.80
2023-01-08T19:30:03.665Z,157.30
2023-01-08T19:35:06.769Z,139.40
2023-01-08T19:40:09.759Z,96.00
2023-01-08T19:45:11.490Z,97.70
2023-01-08T19:50:13.190Z,77.20
2023-01-08T19:55:17.693Z,87.50
2023-01-08T20:00:22.539Z,75.50
2023-01-08T20:05:24.213Z,72.20
2023-01-08T20:10:26.164Z,63.10
2023-01-08T20:15:29.022Z,65.80
2023-01-08T20:20:31.118Z,46.80
2023-01-08T20:25:34.399Z,41.90
2023-01-08T20:30:36.265Z,42.40
2023-01-08T20:35:38.646Z,43.70
2023-01-08T20:40:41.465Z,50.40
2023-01-08T20:45:43.769Z,56.40
2023-01-08T20:50:47.035Z,58.40
2023-01-08T20:55:49.256Z,62.20
2023-01-08T21:00:51.012Z,62.40
2023-01-08T21:05:52.995Z,66.00
2023-01-08T21:11:02.438Z,58.00
2023-01-08T21:16:07.856Z,61.10
2023-01-08T21:21:12.159Z,78.80
2023-01-08T21:26:15.935Z,72.10
2023-01-08T21:31:22.481Z,75.60
2023-01-08T21:36:26.817Z,78.00
2023-01-08T21:41:48.931Z,73.60
2023-01-08T21:46:51.107Z,63.10
2023-01-08T21:52:11.874Z,61.60
2023-01-08T21:57:13.577Z,66.30
2023-01-08T22:02:17.385Z,62.10
2023-01-08T22:07:19.131Z,58.40
2023-01-08T22:12:23.514Z,61.30
2023-01-08T22:17:28.943Z,58.80
2023-01-08T22:22:30.710Z,51.10
2023-01-08T22:27:32.507Z,49.90
2023-01-08T22:32:36.831Z,46.70
2023-01-08T22:37:40.541Z,46.10
2023-01-08T22:42:42.240Z,49.70
2023-01-08T22:47:43.922Z,55.40
2023-01-08T22:52:45.665Z,49.00
2023-01-08T22:57:47.827Z,51.40
2023-01-08T23:02:49.706Z,47.00
2023-01-08T23:07:51.652Z,45.60
2023-01-08T23:12:53.822Z,43.90
2023-01-08T23:17:55.647Z,46.00
2023-01-08T23:22:57.473Z,41.10
2023-01-08T23:27:59.196Z,39.10
2023-01-08T23:33:01.083Z,46.00
2023-01-08T23:38:02.739Z,48.00
2023-01-08T23:43:04.398Z,49.60
2023-01-08T23:48:06.482Z,50.80
2023-01-08T23:53:08.427Z,48.90
2023-01-08T23:58:10.612Z,50.00
